Time;durP1;ratioP1;P1;durP2;ratioP2;P2;SDS_P1;SDS_P2;PMS_P1;PMS_P2;Temp;Humidity;BMP_temperature;BMP_pressure;BME280_temperature;BME280_humidity;BME280_pressure;Samples;Min_cycle;Max_cycle;Signal;HPM_P1;HPM_P2
2021/05/01 00:01:40;;;;;;;23.50;10.73;;;;;;;;;;5089813;28;21430;-67
2021/05/01 00:04:05;;;;;;;25.23;11.07;;;;;;;;;;5086585;28;20076;-67
2021/05/01 00:06:30;;;;;;;25.20;9.97;;;;;;;;;;5084745;28;20518;-67
2021/05/01 00:08:55;;;;;;;29.47;12.03;;;;;;;;;;5092276;28;20073;-67
2021/05/01 00:11:22;;;;;;;27.50;11.10;;;;;;;;;;5091428;28;20043;-67
2021/05/01 00:13:48;;;;;;;25.23;11.37;;;;;;;;;;5088089;28;20072;-67
2021/05/01 00:16:13;;;;;;;27.00;10.93;;;;;;;;;;5087000;28;21114;-67
2021/05/01 00:18:39;;;;;;;27.33;11.57;;;;;;;;;;5082966;28;20028;-67
2021/05/01 00:21:05;;;;;;;24.37;10.77;;;;;;;;;;5091243;28;20140;-67
2021/05/01 00:23:30;;;;;;;27.13;11.20;;;;;;;;;;5092168;28;20020;-67
2021/05/01 00:25:55;;;;;;;28.27;11.53;;;;;;;;;;5090261;28;20016;-67
2021/05/01 00:28:21;;;;;;;26.93;11.53;;;;;;;;;;5085552;28;20085;-67
2021/05/01 00:30:46;;;;;;;26.37;11.20;;;;;;;;;;5085076;28;20036;-67
2021/05/01 00:33:11;;;;;;;29.87;11.43;;;;;;;;;;5085343;28;20105;-67
2021/05/01 00:35:37;;;;;;;30.47;12.60;;;;;;;;;;5090368;28;20118;-67
2021/05/01 00:38:02;;;;;;;25.77;11.13;;;;;;;;;;5090079;28;20042;-67
2021/05/01 00:40:27;;;;;;;29.03;11.20;;;;;;;;;;5085244;28;20030;-67
2021/05/01 00:42:53;;;;;;;30.57;11.77;;;;;;;;;;5086254;28;20514;-67
2021/05/01 00:45:18;;;;;;;30.17;12.43;;;;;;;;;;5084475;28;20336;-67
2021/05/01 00:47:43;;;;;;;30.77;11.90;;;;;;;;;;5089836;28;20031;-67
2021/05/01 00:50:09;;;;;;;29.90;12.43;;;;;;;;;;5089971;28;20506;-67
2021/05/01 00:52:35;;;;;;;31.37;12.20;;;;;;;;;;5089612;28;20028;-67
2021/05/01 00:55:02;;;;;;;29.97;11.43;;;;;;;;;;5091377;28;20769;-67
2021/05/01 00:57:27;;;;;;;29.90;11.90;;;;;;;;;;5094354;28;20027;-67
2021/05/01 00:59:53;;;;;;;31.10;11.80;;;;;;;;;;5094564;28;20020;-67
2021/05/01 01:02:21;;;;;;;28.63;11.47;;;;;;;;;;5092841;28;20044;-67
2021/05/01 01:04:46;;;;;;;31.33;12.17;;;;;;;;;;5089590;28;20036;-67
2021/05/01 01:07:12;;;;;;;29.40;10.63;;;;;;;;;;5092189;28;20031;-67
2021/05/01 01:09:37;;;;;;;29.93;12.53;;;;;;;;;;5089163;28;20102;-67
2021/05/01 01:12:02;;;;;;;30.83;12.20;;;;;;;;;;5090888;28;20032;-66
2021/05/01 01:14:28;;;;;;;30.97;11.23;;;;;;;;;;5092430;22;20173;-80
2021/05/01 01:16:53;;;;;;;30.37;13.10;;;;;;;;;;5059576;28;20427;-80
2021/05/01 01:19:18;;;;;;;29.93;12.43;;;;;;;;;;5066093;28;20025;-80
2021/05/01 01:21:45;;;;;;;28.20;11.53;;;;;;;;;;5063414;28;20029;-80
2021/05/01 01:24:10;;;;;;;32.07;12.60;;;;;;;;;;5062326;28;20021;-80
2021/05/01 01:26:37;;;;;;;28.17;11.57;;;;;;;;;;5063186;28;20128;-79
2021/05/01 01:29:02;;;;;;;31.57;12.03;;;;;;;;;;5047550;28;20049;-79
2021/05/01 01:31:28;;;;;;;30.30;11.73;;;;;;;;;;5063729;28;20361;-79
2021/05/01 01:33:53;;;;;;;36.43;13.10;;;;;;;;;;5065304;28;20080;-79
2021/05/01 01:36:18;;;;;;;32.03;11.50;;;;;;;;;;5062602;28;20051;-79
2021/05/01 01:38:44;;;;;;;29.73;11.77;;;;;;;;;;5056410;28;20036;-79
2021/05/01 01:41:09;;;;;;;28.67;11.90;;;;;;;;;;5060947;28;20092;-79
2021/05/01 01:43:36;;;;;;;31.70;12.57;;;;;;;;;;5062678;28;20032;-79
2021/05/01 01:46:02;;;;;;;30.50;12.50;;;;;;;;;;5065264;28;20099;-79
2021/05/01 01:48:27;;;;;;;31.00;11.97;;;;;;;;;;5063408;28;20064;-79
2021/05/01 01:50:52;;;;;;;28.10;12.10;;;;;;;;;;5061251;28;20442;-79
2021/05/01 01:53:19;;;;;;;32.37;12.60;;;;;;;;;;5045077;28;20511;-79
2021/05/01 01:55:44;;;;;;;32.80;12.80;;;;;;;;;;5063763;28;20050;-80
2021/05/01 01:58:09;;;;;;;30.47;11.97;;;;;;;;;;5063684;28;20076;-80
2021/05/01 02:00:35;;;;;;;29.13;11.93;;;;;;;;;;5064845;28;20496;-80
2021/05/01 02:03:01;;;;;;;32.03;11.97;;;;;;;;;;5062455;28;20021;-80
2021/05/01 02:05:26;;;;;;;31.10;12.47;;;;;;;;;;5071689;28;20024;-80
2021/05/01 02:07:52;;;;;;;31.57;12.93;;;;;;;;;;5062862;28;20074;-80
2021/05/01 02:10:17;;;;;;;33.87;13.60;;;;;;;;;;5062342;28;20524;-80
2021/05/01 02:12:43;;;;;;;29.67;11.97;;;;;;;;;;5063973;28;20056;-80
2021/05/01 02:15:13;;;;;;;35.07;12.67;;;;;;;;;;5063517;28;20493;-79
2021/05/01 02:17:40;;;;;;;34.67;13.30;;;;;;;;;;5065787;28;20112;-79
2021/05/01 02:20:06;;;;;;;35.00;13.30;;;;;;;;;;5064078;28;20025;-79
2021/05/01 02:22:32;;;;;;;32.20;12.63;;;;;;;;;;5061992;28;20021;-79
2021/05/01 02:24:57;;;;;;;32.40;12.17;;;;;;;;;;5058499;28;20021;-79
2021/05/01 02:27:22;;;;;;;30.50;12.33;;;;;;;;;;5045387;28;20036;-79
2021/05/01 02:29:47;;;;;;;37.53;13.90;;;;;;;;;;5062519;28;20081;-79
2021/05/01 02:32:13;;;;;;;40.13;13.37;;;;;;;;;;5057466;28;20021;-80
2021/05/01 02:34:38;;;;;;;39.03;14.90;;;;;;;;;;5062820;28;20028;-80
2021/05/01 02:37:03;;;;;;;33.70;12.80;;;;;;;;;;5064299;28;20462;-80
2021/05/01 02:39:30;;;;;;;37.90;13.90;;;;;;;;;;5060235;28;20016;-80
2021/05/01 02:41:55;;;;;;;43.40;14.73;;;;;;;;;;5058439;28;20479;-80
2021/05/01 02:44:21;;;;;;;40.50;14.73;;;;;;;;;;5061193;28;20021;-80
2021/05/01 02:46:46;;;;;;;43.47;15.07;;;;;;;;;;5065432;28;20029;-80
2021/05/01 02:49:11;;;;;;;44.70;15.13;;;;;;;;;;5057812;28;20411;-80
2021/05/01 02:51:36;;;;;;;45.13;15.70;;;;;;;;;;5060027;28;20021;-80
2021/05/01 02:54:02;;;;;;;49.43;16.30;;;;;;;;;;5058774;28;20053;-81
2021/05/01 02:56:27;;;;;;;52.83;17.33;;;;;;;;;;5055604;28;20151;-81
2021/05/01 02:58:52;;;;;;;47.03;14.63;;;;;;;;;;5054603;28;20103;-81
2021/05/01 03:01:18;;;;;;;51.40;16.60;;;;;;;;;;5055900;28;20346;-81
2021/05/01 03:03:46;;;;;;;56.43;17.43;;;;;;;;;;5055707;28;20025;-81
2021/05/01 03:06:12;;;;;;;51.70;17.03;;;;;;;;;;5056685;28;20021;-81
2021/05/01 03:08:37;;;;;;;50.53;16.97;;;;;;;;;;5057882;28;20075;-81
2021/05/01 03:11:03;;;;;;;51.83;17.60;;;;;;;;;;5053813;28;20025;-81
2021/05/01 03:13:28;;;;;;;45.20;14.47;;;;;;;;;;5057689;28;20040;-81
2021/05/01 03:15:53;;;;;;;52.27;16.17;;;;;;;;;;5055558;28;20393;-81
2021/05/01 03:18:18;;;;;;;53.57;17.77;;;;;;;;;;5054595;28;20067;-81
2021/05/01 03:20:45;;;;;;;55.83;16.60;;;;;;;;;;5055751;28;20528;-81
2021/05/01 03:23:10;;;;;;;62.70;17.10;;;;;;;;;;5056512;28;20029;-81
2021/05/01 03:25:36;;;;;;;55.30;16.23;;;;;;;;;;5054686;28;20108;-81
2021/05/01 03:28:01;;;;;;;56.33;17.20;;;;;;;;;;5058246;28;20033;-81
2021/05/01 03:30:26;;;;;;;53.53;18.07;;;;;;;;;;5057969;28;20025;-81
2021/05/01 03:32:51;;;;;;;60.60;17.90;;;;;;;;;;5057045;28;20055;-81
2021/05/01 03:35:17;;;;;;;53.93;17.13;;;;;;;;;;5056767;28;20039;-81
2021/05/01 03:37:42;;;;;;;69.60;17.73;;;;;;;;;;5057337;28;20024;-81
2021/05/01 03:40:09;;;;;;;66.33;19.40;;;;;;;;;;5057343;28;20373;-81
2021/05/01 03:42:34;;;;;;;71.77;21.27;;;;;;;;;;5057326;28;20092;-81
2021/05/01 03:45:00;;;;;;;70.67;19.03;;;;;;;;;;5056735;28;20489;-81
2021/05/01 03:47:25;;;;;;;69.73;20.50;;;;;;;;;;5056418;28;20076;-81
2021/05/01 03:49:50;;;;;;;67.13;19.00;;;;;;;;;;5054332;28;20052;-81
2021/05/01 03:52:16;;;;;;;73.70;19.40;;;;;;;;;;5055759;28;20033;-81
2021/05/01 03:54:41;;;;;;;72.27;18.50;;;;;;;;;;5055051;28;20032;-81
2021/05/01 03:57:06;;;;;;;66.50;18.93;;;;;;;;;;5064894;28;20100;-81
2021/05/01 03:59:31;;;;;;;65.87;18.13;;;;;;;;;;5056593;28;20480;-81
2021/05/01 04:01:57;;;;;;;72.23;18.30;;;;;;;;;;5057435;28;20048;-80
2021/05/01 04:04:22;;;;;;;70.47;18.27;;;;;;;;;;5054585;28;20036;-81
2021/05/01 04:06:47;;;;;;;62.43;17.93;;;;;;;;;;5056522;28;20393;-81
2021/05/01 04:09:12;;;;;;;64.97;18.63;;;;;;;;;;5038835;28;20029;-81
2021/05/01 04:11:38;;;;;;;70.77;19.00;;;;;;;;;;5054315;28;20028;-81
2021/05/01 04:14:03;;;;;;;74.53;19.87;;;;;;;;;;5056478;28;20029;-81
2021/05/01 04:16:28;;;;;;;66.10;18.77;;;;;;;;;;5054511;28;20505;-81
2021/05/01 04:18:54;;;;;;;71.63;20.63;;;;;;;;;;5056904;28;20028;-81
2021/05/01 04:21:19;;;;;;;62.90;19.07;;;;;;;;;;5057622;28;20017;-81
2021/05/01 04:23:45;;;;;;;69.00;18.87;;;;;;;;;;5056827;28;20444;-81
2021/05/01 04:26:10;;;;;;;76.47;19.80;;;;;;;;;;5054683;28;20044;-81
2021/05/01 04:28:35;;;;;;;74.90;20.57;;;;;;;;;;5054869;28;20017;-81
2021/05/01 04:31:01;;;;;;;75.00;19.50;;;;;;;;;;5057577;28;20029;-80
2021/05/01 04:33:28;;;;;;;67.43;19.93;;;;;;;;;;5055584;28;20671;-81
2021/05/01 04:35:53;;;;;;;64.83;18.40;;;;;;;;;;5055474;28;20025;-81
2021/05/01 04:38:18;;;;;;;69.23;20.60;;;;;;;;;;5053325;28;20354;-80
2021/05/01 04:40:43;;;;;;;63.53;18.10;;;;;;;;;;5054477;28;20017;-80
2021/05/01 04:43:11;;;;;;;59.50;18.60;;;;;;;;;;5056927;28;20021;-80
2021/05/01 04:45:45;;;;;;;47.27;16.77;;;;;;;;;;5054510;28;20033;-80
2021/05/01 04:48:10;;;;;;;46.77;16.20;;;;;;;;;;5056554;28;20076;-81
2021/05/01 04:50:36;;;;;;;43.67;15.00;;;;;;;;;;5058079;28;20033;-81
2021/05/01 04:53:01;;;;;;;40.57;14.03;;;;;;;;;;5054431;28;20087;-81
2021/05/01 04:55:27;;;;;;;44.03;14.57;;;;;;;;;;5055529;28;20021;-81
2021/05/01 04:57:53;;;;;;;38.07;14.60;;;;;;;;;;5056954;28;20021;-80
2021/05/01 05:00:20;;;;;;;41.47;15.10;;;;;;;;;;5054503;28;20032;-81
2021/05/01 05:02:46;;;;;;;35.27;14.93;;;;;;;;;;5069165;28;20071;-81
2021/05/01 05:05:12;;;;;;;38.40;14.77;;;;;;;;;;5055011;28;20071;-81
2021/05/01 05:07:37;;;;;;;39.00;15.43;;;;;;;;;;5056217;28;20017;-81
2021/05/01 05:10:05;;;;;;;34.67;13.80;;;;;;;;;;5055566;28;20071;-81
2021/05/01 05:12:30;;;;;;;37.43;14.13;;;;;;;;;;5056327;28;20124;-81
2021/05/01 05:14:56;;;;;;;35.03;14.53;;;;;;;;;;5053160;28;20068;-81
2021/05/01 05:17:21;;;;;;;33.37;13.30;;;;;;;;;;5056240;28;20089;-81
2021/05/01 05:19:46;;;;;;;36.27;13.40;;;;;;;;;;5055149;28;20028;-81
2021/05/01 05:22:12;;;;;;;32.70;13.43;;;;;;;;;;5054239;28;20025;-81
2021/05/01 05:24:38;;;;;;;31.00;13.80;;;;;;;;;;5054863;28;20041;-81
2021/05/01 05:27:03;;;;;;;33.00;13.20;;;;;;;;;;5053816;28;20021;-81
2021/05/01 05:29:29;;;;;;;33.00;13.20;;;;;;;;;;5055339;28;20051;-81
2021/05/01 05:31:54;;;;;;;34.30;12.73;;;;;;;;;;5066456;28;20087;-81
2021/05/01 05:34:19;;;;;;;36.73;14.50;;;;;;;;;;5057519;28;20064;-81
2021/05/01 05:36:45;;;;;;;33.40;13.67;;;;;;;;;;5042661;28;20552;-81
2021/05/01 05:39:10;;;;;;;35.83;14.63;;;;;;;;;;5059273;28;20045;-81
2021/05/01 05:41:36;;;;;;;38.07;15.30;;;;;;;;;;5063809;28;20111;-81
2021/05/01 05:44:02;;;;;;;34.27;13.80;;;;;;;;;;5059680;28;20469;-82
2021/05/01 05:46:27;;;;;;;38.80;14.23;;;;;;;;;;5060591;28;20025;-82
2021/05/01 05:48:52;;;;;;;38.37;14.93;;;;;;;;;;5058562;28;20079;-82
2021/05/01 05:51:18;;;;;;;38.73;14.60;;;;;;;;;;5057050;28;20103;-82
2021/05/01 05:53:43;;;;;;;34.43;13.20;;;;;;;;;;5057789;28;20189;-82
2021/05/01 05:56:08;;;;;;;35.87;14.30;;;;;;;;;;5066043;28;20083;-82
2021/05/01 05:58:34;;;;;;;35.27;14.63;;;;;;;;;;5059185;28;20056;-82
2021/05/01 06:00:59;;;;;;;36.13;13.53;;;;;;;;;;5062754;28;20338;-82
2021/05/01 06:03:25;;;;;;;35.33;14.60;;;;;;;;;;5059331;28;20079;-82
2021/05/01 06:05:52;;;;;;;42.17;14.77;;;;;;;;;;5058783;28;20381;-81
2021/05/01 06:08:17;;;;;;;44.43;15.53;;;;;;;;;;5057235;28;20096;-81
2021/05/01 06:10:43;;;;;;;40.90;15.60;;;;;;;;;;5062605;28;20052;-81
2021/05/01 06:13:10;;;;;;;40.47;16.07;;;;;;;;;;5059640;28;20021;-81
2021/05/01 06:15:35;;;;;;;43.53;15.97;;;;;;;;;;5060996;28;20051;-81
2021/05/01 06:18:01;;;;;;;41.33;15.63;;;;;;;;;;5059836;28;20462;-81
2021/05/01 06:20:27;;;;;;;46.80;16.00;;;;;;;;;;5059671;28;20013;-81
2021/05/01 06:22:53;;;;;;;44.73;16.30;;;;;;;;;;5059887;28;20117;-81
2021/05/01 06:25:19;;;;;;;42.83;17.20;;;;;;;;;;5058757;28;20484;-81
2021/05/01 06:27:44;;;;;;;42.87;16.80;;;;;;;;;;5059023;28;20090;-81
2021/05/01 06:30:10;;;;;;;46.23;16.70;;;;;;;;;;5059283;28;20039;-81
2021/05/01 06:32:36;;;;;;;44.17;16.83;;;;;;;;;;5058917;28;20420;-81
2021/05/01 06:35:02;;;;;;;46.87;17.20;;;;;;;;;;5053362;28;20092;-81
2021/05/01 06:37:28;;;;;;;42.00;16.33;;;;;;;;;;5059207;28;20021;-81
2021/05/01 06:40:01;;;;;;;46.80;16.53;;;;;;;;;;5058299;28;20036;-81
2021/05/01 06:42:26;;;;;;;47.13;16.83;;;;;;;;;;5058262;28;20669;-81
2021/05/01 06:44:59;;;;;;;39.60;15.10;;;;;;;;;;5058603;28;20099;-81
2021/05/01 06:47:25;;;;;;;42.07;15.97;;;;;;;;;;5062042;28;20021;-81
2021/05/01 06:49:52;;;;;;;50.77;17.17;;;;;;;;;;5058536;28;20021;-81
2021/05/01 06:52:18;;;;;;;45.80;17.67;;;;;;;;;;5058653;28;20104;-81
2021/05/01 06:54:49;;;;;;;46.93;16.97;;;;;;;;;;5058901;28;20056;-81
2021/05/01 06:57:14;;;;;;;44.53;16.40;;;;;;;;;;5056453;28;20057;-81
2021/05/01 06:59:40;;;;;;;45.87;17.07;;;;;;;;;;5051697;28;20159;-81
2021/05/01 07:02:06;;;;;;;46.67;16.43;;;;;;;;;;5056458;28;20535;-82
2021/05/01 07:04:31;;;;;;;45.53;17.73;;;;;;;;;;5055656;28;20021;-81
2021/05/01 07:06:57;;;;;;;44.93;16.37;;;;;;;;;;5052862;28;20039;-82
2021/05/01 07:09:22;;;;;;;46.60;17.80;;;;;;;;;;5056355;28;20099;-82
2021/05/01 07:11:48;;;;;;;41.90;15.70;;;;;;;;;;5059731;28;20473;-81
2021/05/01 07:14:14;;;;;;;42.63;16.30;;;;;;;;;;5058147;28;20096;-82
2021/05/01 07:16:40;;;;;;;40.67;14.20;;;;;;;;;;5056543;28;20162;-81
2021/05/01 07:19:07;;;;;;;37.77;15.17;;;;;;;;;;5057878;28;20036;-82
2021/05/01 07:21:32;;;;;;;41.23;15.87;;;;;;;;;;5057341;28;20469;-81
2021/05/01 07:23:57;;;;;;;44.40;15.60;;;;;;;;;;5058211;28;20078;-81
2021/05/01 07:26:23;;;;;;;41.30;15.70;;;;;;;;;;5063109;28;20363;-81
2021/05/01 07:28:53;;;;;;;40.27;15.67;;;;;;;;;;5056809;28;20199;-81
2021/05/01 07:31:27;;;;;;;44.27;15.17;;;;;;;;;;5055773;28;20056;-81
2021/05/01 07:33:55;;;;;;;34.03;13.10;;;;;;;;;;5057497;28;20408;-81
2021/05/01 07:36:25;;;;;;;40.10;14.50;;;;;;;;;;5053343;28;20031;-81
2021/05/01 07:38:51;;;;;;;39.20;15.10;;;;;;;;;;5058817;28;20031;-81
2021/05/01 07:41:17;;;;;;;42.00;14.87;;;;;;;;;;5057365;28;20024;-81
2021/05/01 07:43:46;;;;;;;36.43;14.27;;;;;;;;;;5055435;28;20520;-81
2021/05/01 07:46:12;;;;;;;37.20;13.77;;;;;;;;;;5057981;28;20021;-81
2021/05/01 07:48:39;;;;;;;37.90;15.67;;;;;;;;;;5056323;28;20021;-81
2021/05/01 07:51:05;;;;;;;37.10;14.67;;;;;;;;;;5056227;28;20449;-81
2021/05/01 07:53:30;;;;;;;40.70;14.50;;;;;;;;;;5057259;28;20029;-81
2021/05/01 07:55:55;;;;;;;35.23;14.47;;;;;;;;;;5057502;28;20108;-81
2021/05/01 07:58:21;;;;;;;33.33;13.47;;;;;;;;;;5051625;28;20021;-82
2021/05/01 08:00:47;;;;;;;39.27;14.90;;;;;;;;;;5048302;28;20028;-82
2021/05/01 08:03:12;;;;;;;35.33;13.57;;;;;;;;;;5058677;28;20025;-81
2021/05/01 08:05:38;;;;;;;31.07;12.67;;;;;;;;;;5051846;28;20027;-81
2021/05/01 08:08:03;;;;;;;32.43;12.80;;;;;;;;;;5055309;28;20108;-81
2021/05/01 08:10:29;;;;;;;28.93;10.53;;;;;;;;;;5054131;28;20028;-81
2021/05/01 08:12:54;;;;;;;27.93;11.73;;;;;;;;;;5057364;28;20059;-81
2021/05/01 08:15:19;;;;;;;26.80;10.93;;;;;;;;;;5058288;28;20049;-81
2021/05/01 08:17:44;;;;;;;30.13;11.70;;;;;;;;;;5057388;28;20111;-81
2021/05/01 08:20:11;;;;;;;24.33;10.17;;;;;;;;;;5055438;28;20025;-81
2021/05/01 08:22:37;;;;;;;29.97;11.90;;;;;;;;;;5055291;28;20025;-81
2021/05/01 08:25:06;;;;;;;27.20;10.07;;;;;;;;;;5055335;28;20358;-81
2021/05/01 08:27:31;;;;;;;25.47;10.60;;;;;;;;;;5054180;28;20461;-82
2021/05/01 08:29:57;;;;;;;29.37;11.80;;;;;;;;;;5054502;28;20025;-82
2021/05/01 08:32:22;;;;;;;27.67;11.20;;;;;;;;;;5054600;28;20024;-82
2021/05/01 08:34:47;;;;;;;28.17;10.73;;;;;;;;;;5054862;28;20071;-81
2021/05/01 08:37:13;;;;;;;23.93;9.60;;;;;;;;;;5069444;28;20460;-82
2021/05/01 08:39:38;;;;;;;24.63;10.37;;;;;;;;;;5056429;28;20079;-82
2021/05/01 08:42:04;;;;;;;24.83;10.60;;;;;;;;;;5069540;28;20028;-82
2021/05/01 08:44:29;;;;;;;27.73;10.70;;;;;;;;;;5056629;28;20033;-82
2021/05/01 08:46:54;;;;;;;26.87;11.40;;;;;;;;;;5061424;28;20028;-82
2021/05/01 08:49:20;;;;;;;24.83;10.53;;;;;;;;;;5055252;28;20063;-82
2021/05/01 08:51:45;;;;;;;27.67;10.47;;;;;;;;;;5064378;28;20393;-82
2021/05/01 08:54:14;;;;;;;24.20;9.77;;;;;;;;;;5056379;28;20108;-81
2021/05/01 08:56:39;;;;;;;24.23;10.20;;;;;;;;;;5056672;28;20048;-81
2021/05/01 08:59:05;;;;;;;22.67;9.77;;;;;;;;;;5057224;28;20029;-81
2021/05/01 09:01:30;;;;;;;21.47;9.33;;;;;;;;;;5057376;28;20084;-81
2021/05/01 09:03:56;;;;;;;21.33;9.07;;;;;;;;;;5057498;28;20071;-82
2021/05/01 09:06:52;;;;;;;20.23;9.07;;;;;;;;;;5057920;28;20033;-81
2021/05/01 09:09:18;;;;;;;22.53;9.43;;;;;;;;;;5053647;28;20051;-82
2021/05/01 09:11:45;;;;;;;25.67;9.43;;;;;;;;;;5070426;28;20020;-81
2021/05/01 09:14:21;;;;;;;20.53;9.17;;;;;;;;;;5061322;28;20362;-82
2021/05/01 09:16:57;;;;;;;24.70;9.50;;;;;;;;;;5060978;28;20358;-81
2021/05/01 09:19:39;;;;;;;17.90;8.23;;;;;;;;;;5061493;28;20722;-82
2021/05/01 09:22:14;;;;;;;17.23;7.22;;;;;;;;;;5060769;28;20048;-82
2021/05/01 09:24:42;;;;;;;19.20;7.77;;;;;;;;;;5061646;28;20021;-80
2021/05/01 09:27:07;;;;;;;19.20;7.60;;;;;;;;;;5063307;28;20028;-81
2021/05/01 09:29:36;;;;;;;17.73;8.47;;;;;;;;;;5061677;28;20029;-81
2021/05/01 09:32:02;;;;;;;19.80;8.33;;;;;;;;;;5061291;28;20484;-81
2021/05/01 09:34:47;;;;;;;17.63;7.73;;;;;;;;;;5060673;28;20025;-82
2021/05/01 09:37:13;;;;;;;15.77;7.30;;;;;;;;;;5078048;28;20020;-82
2021/05/01 09:39:52;;;;;;;16.77;8.00;;;;;;;;;;5046107;28;20017;-82
2021/05/01 09:42:18;;;;;;;22.53;8.73;;;;;;;;;;5061074;28;20029;-81
2021/05/01 09:44:44;;;;;;;17.37;8.07;;;;;;;;;;5060632;28;20108;-81
2021/05/01 09:47:13;;;;;;;20.27;7.97;;;;;;;;;;5060542;28;19997;-83
2021/05/01 09:49:38;;;;;;;18.53;7.90;;;;;;;;;;5059259;28;20024;-82
2021/05/01 09:52:10;;;;;;;17.23;7.80;;;;;;;;;;5061923;28;20025;-82
2021/05/01 09:54:37;;;;;;;17.33;8.20;;;;;;;;;;5060036;28;20111;-82
2021/05/01 09:57:02;;;;;;;18.30;8.20;;;;;;;;;;5059936;28;20063;-82
2021/05/01 09:59:41;;;;;;;18.43;8.33;;;;;;;;;;5060293;28;20033;-82
2021/05/01 10:02:07;;;;;;;16.50;7.77;;;;;;;;;;5062227;28;20044;-82
2021/05/01 10:04:33;;;;;;;20.23;9.20;;;;;;;;;;5060458;28;20025;-81
2021/05/01 10:07:08;;;;;;;17.97;7.87;;;;;;;;;;5060280;28;20062;-81
2021/05/01 10:09:35;;;;;;;21.30;7.97;;;;;;;;;;5061259;28;20088;-81
2021/05/01 10:12:03;;;;;;;17.43;8.27;;;;;;;;;;5071530;28;20035;-81
2021/05/01 10:14:34;;;;;;;17.57;8.30;;;;;;;;;;5058464;28;20091;-82
2021/05/01 10:17:00;;;;;;;17.53;8.20;;;;;;;;;;5057726;28;20063;-83
2021/05/01 10:19:41;;;;;;;18.23;8.10;;;;;;;;;;5051752;28;20652;-82
2021/05/01 10:22:19;;;;;;;17.63;8.27;;;;;;;;;;5068719;28;20035;-82
2021/05/01 10:24:45;;;;;;;19.53;7.97;;;;;;;;;;5052153;28;20048;-82
2021/05/01 10:27:10;;;;;;;18.60;8.77;;;;;;;;;;5058019;28;20108;-81
2021/05/01 10:29:38;;;;;;;21.10;8.93;;;;;;;;;;5056873;28;20033;-81
2021/05/01 10:32:13;;;;;;;21.87;8.93;;;;;;;;;;5066316;28;20035;-81
2021/05/01 10:34:39;;;;;;;18.43;9.53;;;;;;;;;;5042145;28;20119;-81
2021/05/01 10:37:05;;;;;;;17.60;7.83;;;;;;;;;;5034107;28;20460;-81
2021/05/01 10:39:41;;;;;;;19.97;8.93;;;;;;;;;;5055418;28;20735;-80
2021/05/01 10:42:12;;;;;;;20.20;8.83;;;;;;;;;;5051304;28;20424;-81
2021/05/01 10:44:37;;;;;;;19.07;8.13;;;;;;;;;;5051216;28;20465;-81
2021/05/01 10:47:13;;;;;;;19.13;8.77;;;;;;;;;;5051665;28;20470;-81
2021/05/01 10:49:42;;;;;;;17.10;8.23;;;;;;;;;;5051882;28;20028;-80
2021/05/01 10:52:14;;;;;;;18.20;8.00;;;;;;;;;;5050732;28;20068;-81
2021/05/01 10:55:01;;;;;;;18.83;8.30;;;;;;;;;;5052294;28;20079;-81
2021/05/01 10:57:27;;;;;;;17.13;8.17;;;;;;;;;;5053687;28;20037;-82
2021/05/01 11:00:11;;;;;;;17.87;8.00;;;;;;;;;;5061242;28;20043;-82
2021/05/01 11:02:40;;;;;;;16.67;7.67;;;;;;;;;;5058426;28;20465;-82
2021/05/01 11:05:10;;;;;;;16.10;8.07;;;;;;;;;;5054131;28;20033;-83
2021/05/01 11:07:43;;;;;;;18.03;9.37;;;;;;;;;;5062941;28;20044;-83
2021/05/01 11:10:10;;;;;;;17.93;8.10;;;;;;;;;;5054846;28;20025;-82
2021/05/01 11:12:47;;;;;;;18.17;8.20;;;;;;;;;;5054583;28;20063;-82
2021/05/01 11:15:13;;;;;;;18.50;9.20;;;;;;;;;;5053310;28;20037;-82
2021/05/01 11:17:48;;;;;;;15.27;7.67;;;;;;;;;;5061481;28;20095;-82
2021/05/01 11:20:15;;;;;;;15.57;7.43;;;;;;;;;;5055695;28;20024;-82
2021/05/01 11:22:42;;;;;;;16.90;8.27;;;;;;;;;;5054981;28;20029;-81
2021/05/01 11:25:09;;;;;;;17.30;7.97;;;;;;;;;;5057290;28;20574;-82
2021/05/01 11:27:36;;;;;;;16.67;7.80;;;;;;;;;;5056990;28;20469;-81
2021/05/01 11:30:02;;;;;;;19.50;8.77;;;;;;;;;;5055818;28;20021;-81
2021/05/01 11:32:27;;;;;;;16.40;8.00;;;;;;;;;;5051195;28;20108;-81
2021/05/01 11:35:06;;;;;;;16.03;7.90;;;;;;;;;;5055178;28;20090;-81
2021/05/01 11:37:36;;;;;;;16.17;7.90;;;;;;;;;;5048534;28;20024;-81
2021/05/01 11:40:03;;;;;;;16.03;8.23;;;;;;;;;;5053095;28;20031;-80
2021/05/01 11:42:29;;;;;;;16.53;7.57;;;;;;;;;;5063417;28;20055;-81
2021/05/01 11:44:55;;;;;;;15.00;6.67;;;;;;;;;;5061073;28;20564;-82
2021/05/01 11:47:23;;;;;;;14.00;7.10;;;;;;;;;;5054016;28;20025;-82
2021/05/01 11:49:49;;;;;;;14.80;7.30;;;;;;;;;;5052612;28;20128;-82
2021/05/01 11:52:31;;;;;;;16.87;7.60;;;;;;;;;;5056634;28;20087;-81
2021/05/01 11:55:14;;;;;;;16.33;7.53;;;;;;;;;;5057004;28;20435;-82
2021/05/01 11:57:48;;;;;;;15.53;7.20;;;;;;;;;;5061956;28;20509;-82
2021/05/01 12:00:25;;;;;;;14.17;7.13;;;;;;;;;;5054159;28;20092;-83
2021/05/01 12:02:51;;;;;;;13.00;6.30;;;;;;;;;;5053350;28;20055;-83
2021/05/01 12:05:21;;;;;;;16.00;7.07;;;;;;;;;;5060509;28;20024;-83
2021/05/01 12:08:00;;;;;;;13.83;6.83;;;;;;;;;;5055054;28;20777;-82
2021/05/01 12:10:26;;;;;;;12.60;6.73;;;;;;;;;;5044531;28;20107;-82
2021/05/01 12:13:03;;;;;;;14.03;7.03;;;;;;;;;;5062378;28;20504;-82
2021/05/01 12:15:33;;;;;;;11.63;5.77;;;;;;;;;;5054250;28;20045;-81
2021/05/01 12:17:59;;;;;;;14.03;6.73;;;;;;;;;;5050311;28;20120;-82
2021/05/01 12:20:26;;;;;;;14.73;7.30;;;;;;;;;;5049858;28;20085;-82
2021/05/01 12:22:51;;;;;;;14.70;7.10;;;;;;;;;;5049423;28;20048;-82
2021/05/01 12:25:29;;;;;;;15.17;7.00;;;;;;;;;;5036618;28;20020;-82
2021/05/01 12:27:55;;;;;;;14.10;6.73;;;;;;;;;;5059278;28;20450;-82
2021/05/01 12:30:43;;;;;;;12.80;6.00;;;;;;;;;;5059766;28;20025;-81
2021/05/01 12:33:27;;;;;;;15.40;7.23;;;;;;;;;;5055213;28;20029;-82
2021/05/01 12:35:58;;;;;;;15.67;6.77;;;;;;;;;;5051784;28;20082;-82
2021/05/01 12:38:25;;;;;;;14.30;6.70;;;;;;;;;;5046569;28;20060;-82
2021/05/01 12:41:11;;;;;;;12.23;6.63;;;;;;;;;;5050608;28;20021;-82
2021/05/01 12:43:45;;;;;;;16.20;7.03;;;;;;;;;;5058572;28;20028;-82
2021/05/01 12:46:13;;;;;;;14.53;6.67;;;;;;;;;;5061549;28;20397;-81
2021/05/01 12:48:42;;;;;;;11.10;6.13;;;;;;;;;;5065665;28;20021;-82
2021/05/01 12:51:15;;;;;;;13.17;5.97;;;;;;;;;;5057502;28;20028;-82
2021/05/01 12:53:41;;;;;;;15.70;6.70;;;;;;;;;;5061340;28;20043;-81
2021/05/01 12:56:13;;;;;;;12.33;6.20;;;;;;;;;;5067496;28;20027;-81
2021/05/01 12:58:38;;;;;;;13.57;6.57;;;;;;;;;;5062304;28;20028;-82
2021/05/01 13:01:22;;;;;;;11.63;6.17;;;;;;;;;;5052242;28;20082;-82
2021/05/01 13:04:05;;;;;;;17.53;6.73;;;;;;;;;;5051902;28;20021;-81
2021/05/01 13:06:31;;;;;;;13.13;6.20;;;;;;;;;;5066369;28;20055;-82
2021/05/01 13:08:57;;;;;;;11.73;5.77;;;;;;;;;;5058538;28;20021;-81
2021/05/01 13:11:28;;;;;;;11.83;5.60;;;;;;;;;;5050980;28;20025;-82
2021/05/01 13:14:12;;;;;;;10.38;5.60;;;;;;;;;;5049013;28;20024;-81
2021/05/01 13:16:57;;;;;;;9.73;5.00;;;;;;;;;;5060572;28;20045;-82
2021/05/01 13:19:22;;;;;;;10.93;5.23;;;;;;;;;;5052591;28;20044;-83
2021/05/01 13:21:50;;;;;;;9.87;5.10;;;;;;;;;;5057366;28;20021;-82
2021/05/01 13:24:16;;;;;;;9.17;5.00;;;;;;;;;;5063978;28;20542;-82
2021/05/01 13:26:41;;;;;;;11.10;5.27;;;;;;;;;;5066455;28;20025;-82
2021/05/01 13:29:06;;;;;;;10.73;4.90;;;;;;;;;;5057640;28;20035;-82
2021/05/01 13:31:32;;;;;;;8.90;4.73;;;;;;;;;;5049376;28;20071;-81
2021/05/01 13:33:57;;;;;;;9.10;4.77;;;;;;;;;;5056186;28;20024;-81
2021/05/01 13:36:23;;;;;;;9.32;4.85;;;;;;;;;;5056969;28;20029;-81
2021/05/01 13:38:54;;;;;;;10.50;4.75;;;;;;;;;;5064115;28;20518;-82
2021/05/01 13:41:24;;;;;;;9.02;5.10;;;;;;;;;;5056610;28;20021;-82
2021/05/01 13:47:24;;;;;;;7.72;4.43;;;;;;;;;;4995974;28;20039;-82
2021/05/01 13:49:58;;;;;;;9.25;4.80;;;;;;;;;;5056689;28;20049;-82
2021/05/01 13:52:25;;;;;;;9.07;4.87;;;;;;;;;;5056854;28;20088;-82
2021/05/01 13:54:51;;;;;;;7.70;4.33;;;;;;;;;;5057759;28;20021;-82
2021/05/01 13:57:16;;;;;;;6.63;3.87;;;;;;;;;;5062198;28;20423;-82
2021/05/01 13:59:41;;;;;;;8.93;4.88;;;;;;;;;;5063074;28;20060;-82
2021/05/01 14:02:07;;;;;;;13.47;4.70;;;;;;;;;;5058873;28;20454;-81
2021/05/01 14:04:32;;;;;;;9.05;4.90;;;;;;;;;;5062195;28;20020;-81
2021/05/01 14:06:57;;;;;;;7.65;4.57;;;;;;;;;;5060574;28;20017;-82
2021/05/01 14:09:27;;;;;;;8.65;4.80;;;;;;;;;;5059132;28;20417;-81
2021/05/01 14:11:53;;;;;;;8.43;4.20;;;;;;;;;;5053906;28;20025;-82
2021/05/01 14:14:22;;;;;;;7.65;4.32;;;;;;;;;;5069932;28;20082;-81
2021/05/01 14:16:57;;;;;;;8.23;4.55;;;;;;;;;;5066913;28;20025;-82
2021/05/01 14:19:22;;;;;;;8.65;4.68;;;;;;;;;;5052104;28;20405;-82
2021/05/01 14:21:54;;;;;;;9.17;5.00;;;;;;;;;;5057243;28;20037;-82
2021/05/01 14:24:20;;;;;;;9.80;4.30;;;;;;;;;;5055390;28;20024;-81
2021/05/01 14:26:50;;;;;;;9.52;4.57;;;;;;;;;;5052225;28;20245;-81
2021/05/01 14:29:15;;;;;;;6.45;4.10;;;;;;;;;;5065077;28;20467;-81